Bicknell, Indiana
Current Conditions -  °F | °C
As of 5:35 PM on Wednesday 22 Oct 2014 (Local Time) from KDCY Reporting Station
Clear Clear  
Wind Chill: 58°   Ceiling: Unl
Heat Index: 58°   Visibility: 10mi
Dew Point: 42°   Wind: 3mph
Humidity: 56%   Direction: 10°N
Pressure: 30.23"   Gusts: NA
Location:  38.77°N, 87.31°W
Report Text: KDCY 222235Z AUTO 01003KT 10SM CLR 14/06 A3023 RMK AO2 T01440056
Loading
Personal Weather Stations






























Interactive Weather Map
Tropical Storm Tracking
New forecast layout! Learn more

10-Day Weather Forecast

Advertisements
Track Severe Weather on mobile